Latest Coastal Weather Observations for Cerberus

IDV60701

Issued at 9:31 pm EST Friday 22 May 2015 (issued every 10 minutes, with the page automatically refreshed every 10 minutes)

About coastal observations | Map of coastal stations | Coastal observations for VIC | Marine services | Other Formats
Station Details ID: 086361 Name: CERBERUS Lat: -38.36 Lon: 145.18 Height: 12.69 m
Data from the previous 72 hours. | See also: Recent months at Cerberus
Date/Time
EST
Temp

°C
Wind Pressure Rain
since 9am
mm
Weather Cloud Vis
km
Sea
Height
m
Swell
Dir
 
Speed
knots
Gust
knots
hPa Trend Height
m
Period
s
Dir
22/09:30pm 11.8 S 6 10 1031.9 - 0.2 - - - - - - -
22/09:00pm 11.9 SSE 8 12 1031.9 - 0.2 - - - - - - -
22/08:30pm 11.8 S 3 8 1031.8 - 0.2 - - - - - - -
22/08:00pm 11.6 SSE 6 9 1031.6 - 0.2 - - - - - - -
22/07:30pm 11.4 S 5 9 1031.5 - 0.2 - - - - - - -
22/07:00pm 11.6 SSE 7 12 1031.2 - 0.2 - - - - - - -
22/06:30pm 11.7 SSE 7 11 1030.9 - 0.2 - - - - - - -
22/06:00pm 11.5 SE 7 11 1030.9 - 0.2 - - - - - - -
22/05:30pm 11.5 S 8 13 1030.8 - 0.2 - - - - - - -
22/05:00pm 11.7 SSE 6 9 1030.7 - 0.2 - - - - - - -
22/04:30pm 11.8 SE 6 8 1030.5 - 0.2 - - - - - - -
22/04:00pm 12.0 SSE 8 13 1030.4 - 0.2 - - - - - - -
22/03:30pm 12.2 SSE 8 13 1030.2 - 0.2 - - - - - - -
22/03:00pm 12.3 SSE 9 13 1030.0 - 0.2 - - - - - - -
22/02:30pm 12.3 SSE 8 14 1029.8 - 0.2 - - - - - - -
22/02:00pm 12.6 SSE 8 13 1029.7 - 0.2 - - - - - - -
22/01:30pm 12.7 S 8 12 1029.7 - 0.2 - - - - - - -
22/01:00pm 12.5 S 8 13 1029.7 - 0.2 - - - - - - -
22/12:30pm 12.8 S 8 13 1029.7 - 0.2 - - - - - - -
22/12:00pm 13.5 SSE 9 12 1029.9 - 0.2 - - - - - - -
22/11:30am 13.0 SSE 8 12 1030.1 - 0.2 - - - - - - -
22/11:00am 12.1 SSE 3 8 1030.4 - 0.2 - - - - - - -
22/10:30am 11.7 SSE 1 2 1030.4 - 0.2 - - - - - - -
22/10:00am 10.9 CALM 0 1 1030.2 - 0.2 - - - - - - -
22/09:30am 10.8 CALM 0 0 1030.1 - 0.2 - - - - - - -
22/09:00am 10.9 SSE 3 5 1030.1 - 0.2 - - - - - - -
22/08:30am 11.2 SSE 3 4 1029.8 - 0.2 - - - - - - -
22/08:00am 10.7 S 2 3 1029.4 - 0.2 - - - - - - -
22/07:30am 10.4 CALM 0 2 1029.0 - 0.2 - - - - - - -
22/07:00am 11.0 ESE 1 2 1028.5 - 0.2 - - - - - - -
22/06:30am 10.9 CALM 0 3 1028.4 - 0.2 - - - - - - -
22/06:00am 11.1 SE 1 2 1028.0 - 0.2 - - - - - - -
22/05:30am 11.3 SE 2 3 1027.6 - 0.2 - - - - - - -
22/05:00am 11.1 SE 2 3 1027.6 - 0.2 - - - - - - -
22/04:30am 11.9 E 3 7 1027.4 - 0.2 - - - - - - -
22/04:00am 11.9 E 4 7 1027.3 - 0.2 - - - - - - -
22/03:30am 11.6 ESE 3 6 1027.1 - 0.2 - - - - - - -
22/03:00am 11.7 ESE 5 10 1027.2 - 0.2 - - - - - - -
22/02:30am 11.7 E 6 11 1027.1 - 0.2 - - - - - - -
22/02:00am 11.9 E 5 9 1026.9 - 0.2 - - - - - - -
22/01:30am 12.3 E 6 11 1026.8 - 0.2 - - - - - - -
22/01:00am 11.9 ESE 4 7 1027.0 - 0.2 - - - - - - -
22/12:30am 11.9 ESE 4 8 1026.8 - 0.2 - - - - - - -
22/12:00am 11.9 E 5 8 1026.7 - 0.2 - - - - - - -
 
Date/Time
EST
Temp

°C
Wind Pressure Rain
since 9am
mm
Weather Cloud Vis
km
Sea
Height
m
Swell
Dir
 
Speed
knots
Gust
knots
hPa Trend Height
m
Period
s
Dir
21/11:30pm 11.5 E 4 7 1026.6 - 0.2 - - - - - - -
21/11:00pm 11.1 E 3 4 1026.6 - 0.2 - - - - - - -
21/10:30pm 11.4 E 2 3 1026.5 - 0.2 - - - - - - -
21/10:00pm 11.5 E 3 5 1026.6 - 0.2 - - - - - - -
21/09:30pm 11.2 ESE 1 2 1026.4 - 0.2 - - - - - - -
21/09:00pm 11.2 E 2 3 1026.2 - 0.2 - - - - - - -
21/08:30pm 11.2 E 2 3 1025.9 - 0.2 - - - - - - -
21/08:00pm 11.4 E 2 3 1025.7 - 0.2 - - - - - - -
21/07:30pm 11.4 NE 3 5 1025.4 - 0.2 - - - - - - -
21/07:00pm 11.4 N 2 2 1025.1 - 0.2 - - - - - - -
21/06:30pm 11.3 N 3 6 1024.5 - 0.2 - - - - - - -
21/06:00pm 11.4 N 4 8 1023.8 - 0.2 - - - - - - -
21/05:30pm 11.3 N 4 7 1023.3 - 0.2 - - - - - - -
21/05:00pm 11.5 NNW 4 7 1022.8 - 0.2 - - - - - - -
21/04:30pm 11.8 NW 3 6 1022.8 - 0.2 - - - - - - -
21/04:00pm 11.8 W 4 7 1022.8 - 0.0 - - - - - - -
21/03:30pm 11.8 WSW 6 7 1022.7 - 0.0 - - - - - - -
21/03:00pm 11.9 SSW 6 10 1022.7 - 0.0 - - - - - - -
21/02:30pm 12.3 S 6 9 1022.8 - 0.0 - - - - - - -
21/02:00pm 12.3 S 7 11 1022.8 - 0.0 - - - - - - -
21/01:30pm 12.8 S 8 13 1022.8 - 0.0 - - - - - - -
21/01:00pm 13.1 SE 8 12 1023.1 - 0.0 - - - - - - -
21/12:30pm 13.6 SSE 9 13 1023.4 - 0.0 - - - - - - -
21/12:00pm 12.8 SSE 8 13 1023.5 - 0.0 - - - - - - -
21/11:30am 13.1 S 8 11 1023.7 - 0.0 - - - - - - -
21/11:00am 13.7 S 9 13 1023.9 - 0.0 - - - - - - -
21/10:30am 13.0 SSE 9 14 1023.7 - 0.0 - - - - - - -
21/10:00am 12.7 S 7 13 1023.5 - 0.0 - - - - - - -
21/09:30am 12.7 SSE 7 10 1023.4 - 0.0 - - - - - - -
21/09:00am 12.3 SSE 7 11 1023.1 - 2.6 - - - - - - -
21/08:30am 12.2 SSE 7 11 1022.8 - 2.6 - - - - - - -
21/08:00am 11.6 SSE 7 11 1022.4 - 2.6 - - - - - - -
21/07:30am 11.7 S 9 15 1022.1 - 2.6 - - - - - - -
21/07:00am 11.3 S 7 13 1021.8 - 2.6 - - - - - - -
21/06:30am 11.4 S 6 13 1021.4 - 2.6 - - - - - - -
21/06:00am 10.9 SSE 7 10 1021.1 - 2.6 - - - - - - -
21/05:30am 11.7 S 8 12 1020.9 - 2.6 - - - - - - -
21/05:00am 11.6 SSE 9 14 1020.6 - 2.6 - - - - - - -
21/04:30am 11.6 S 10 15 1020.3 - 2.6 - - - - - - -
21/04:00am 11.4 S 8 13 1020.1 - 2.6 - - - - - - -
21/03:30am 11.2 S 9 15 1020.0 - 2.6 - - - - - - -
21/03:00am 10.9 S 11 18 1019.9 - 2.6 Recent precip. - - - - - -
21/02:30am 10.5 S 10 15 1019.9 - 2.4 - - - - - - -
21/02:00am 10.9 S 10 16 1019.7 - 2.4 - - - - - - -
21/01:30am 11.4 SSE 12 20 1019.5 - 2.4 - - - - - - -
21/01:00am 11.3 SSE 14 21 1019.3 - 2.4 - - - - - - -
21/12:30am 11.0 SSE 13 22 1019.1 - 2.4 - - - - - - -
21/12:00am 11.2 SSE 14 21 1018.7 - 2.4 - - - - - - -
 
Date/Time
EST
Temp

°C
Wind Pressure Rain
since 9am
mm
Weather Cloud Vis
km
Sea
Height
m
Swell
Dir
 
Speed
knots
Gust
knots
hPa Trend Height
m
Period
s
Dir
20/11:30pm 11.6 SSE 11 17 1018.5 - 2.4 - - - - - - -
20/11:00pm 11.6 SSE 13 21 1018.2 - 2.4 - - - - - - -
20/10:30pm 11.7 SSE 13 20 1018.0 - 2.4 - - - - - - -
20/10:00pm 12.3 SSE 14 20 1017.5 - 2.2 - - - - - - -
20/09:30pm 12.4 SE 13 20 1017.0 - 2.2 - - - - - - -
20/09:00pm 12.9 SE 11 19 1016.3 - 2.2 Recent precip. - - - - - -
20/08:30pm 13.0 SE 12 21 1015.7 - 2.2 - - - - - - -
20/08:00pm 13.3 SSE 12 19 1015.0 - 2.0 - - - - - - -
20/07:30pm 13.7 SSE 10 17 1014.4 - 2.0 - - - - - - -
20/07:00pm 13.5 WNW 3 4 1013.8 - 1.4 - - - - - - -
20/06:30pm 13.5 WNW 3 5 1013.1 - 1.4 - - - - - - -
20/06:00pm 13.4 NW 2 4 1012.5 - 1.4 Recent precip. - - - - - -
20/05:30pm 13.6 NNW 4 9 1011.9 - 1.4 - - - - - - -
20/05:00pm 14.1 NNW 6 10 1011.6 - 0.6 - - - - - - -
20/04:30pm 15.1 NNW 6 11 1011.4 - 0.0 - - - - - - -
20/04:00pm 16.1 NW 7 13 1011.2 - 0.0 - - - - - - -
20/03:30pm 16.6 NNW 5 7 1010.9 - 0.0 - - - - - - -
20/03:00pm 16.5 NW 5 9 1010.7 - 0.0 - - - - - - -
20/02:30pm 16.1 WNW 6 9 1010.5 - 0.0 - - - - - - -
20/02:00pm 16.9 WNW 8 15 1010.3 - 0.0 - - - - - - -
20/01:30pm 15.9 NW 8 15 1010.2 - 0.0 - - - - - - -
20/01:00pm 16.2 NW 9 15 1010.2 - 0.0 - - - - - - -
20/12:30pm 15.7 NW 11 17 1010.3 - 0.0 - - - - - - -
20/12:00pm 15.8 WNW 11 19 1010.7 - 0.0 - - - - - - -
20/11:30am 16.3 NW 11 18 1010.7 - 0.0 - - - - - - -
20/11:00am 15.7 WNW 11 18 1010.7 - 0.0 - - - - - - -
20/10:30am 16.2 WNW 10 15 1010.4 - 0.0 - - - - - - -
20/10:00am 16.7 NNW 9 18 1009.9 - 0.0 - - - - - - -
20/09:30am 16.1 NW 9 13 1009.9 - 0.0 - - - - - - -
20/09:00am 16.1 NNW 6 10 1009.7 - 7.4 - - - - - - -
20/08:30am 15.7 NNW 6 12 1009.3 - 7.4 - - - - - - -
20/08:00am 15.1 NNW 5 9 1008.9 - 7.4 - - - - - - -
20/07:30am 15.0 NNW 6 13 1008.5 - 7.4 - - - - - - -
20/07:00am 14.9 NNW 7 12 1008.2 - 7.4 - - - - - - -
20/06:30am 14.8 NNW 7 11 1007.9 - 7.4 - - - - - - -
20/06:00am 14.8 NNW 6 12 1007.6 - 7.4 - - - - - - -
20/05:30am 14.6 N 6 10 1007.3 - 7.4 - - - - - - -
20/05:00am 14.3 N 6 15 1006.9 - 7.4 - - - - - - -
20/04:30am 13.6 N 4 7 1006.9 - 7.4 - - - - - - -
20/04:00am 13.1 N 5 8 1006.8 - 7.4 - - - - - - -
20/03:30am 12.7 N 4 7 1007.1 - 7.4 - - - - - - -
20/03:00am 12.5 N 3 4 1007.3 - 7.4 - - - - - - -
20/02:30am 12.5 N 2 4 1007.5 - 7.4 - - - - - - -
20/02:00am 12.7 N 1 2 1007.7 - 7.4 - - - - - - -
20/01:30am 13.1 N 4 7 1008.2 - 6.8 - - - - - - -
20/01:00am 13.6 NNW 7 12 1008.5 - 6.4 - - - - - - -
20/12:30am 14.4 N 6 9 1008.4 - 6.2 - - - - - - -
20/12:00am 14.6 NNW 6 12 1008.8 - 6.2 - - - - - - -
 
Date/Time
EST
Temp

°C
Wind Pressure Rain
since 9am
mm
Weather Cloud Vis
km
Sea
Height
m
Swell
Dir
 
Speed
knots
Gust
knots
hPa Trend Height
m
Period
s
Dir
19/11:30pm 14.7 NNW 9 15 1009.0 - 6.2 - - - - - - -
19/11:00pm 14.9 NNW 11 18 1008.8 - 6.2 - - - - - - -
19/10:30pm 14.7 NNW 10 17 1009.1 - 6.2 - - - - - - -
19/10:00pm 14.1 N 5 13 1009.3 - 6.2 - - - - - - -

Other Formats:

Comma delimited format used in spreadsheet applications
http://www.bom.gov.au/fwo/IDV60701/IDV60701.94898.axf

JavaScript Object Notation format (JSON) in row-major order
http://www.bom.gov.au/fwo/IDV60701/IDV60701.94898.json